Latest Coastal Weather Observations for Hindmarsh Island

IDS60701

Issued at 3:45 pm CDT Wednesday 22 October 2014 (issued every 10 minutes, with the page automatically refreshed every 10 minutes)

About coastal observations | Map of coastal stations | Coastal observations for SA | Marine services | Other Formats
Station Details ID: 023894 Name: HINDMARSH ISLAND AWS Lat: -35.52 Lon: 138.82 Height: 11.0 m
Data from the previous 72 hours. | See also: Recent months at Hindmarsh Island
Date/Time
CDT
Temp

°C
Wind Pressure Rain
since 9am
mm
Weather Cloud Vis
km
Sea
Height
m
Swell
Dir
 
Speed
knots
Gust
knots
hPa Trend Height
m
Period
s
Dir
22/03:30pm 17.5 SSW 21 25 1018.5 - 0.0 - - - - - - -
22/03:00pm 17.6 SSW 21 25 1018.5 - 0.0 - - - - - - -
22/02:30pm 18.2 SSW 22 26 1018.4 - 0.0 - - - - - - -
22/02:00pm 18.4 SW 23 27 1018.6 - 0.0 - - - - - - -
22/01:30pm 18.7 SW 25 29 1018.3 - 0.0 - - - - - - -
22/01:00pm 19.1 SW 24 28 1018.2 - 0.0 - - - - - - -
22/12:30pm 19.3 SW 23 28 1018.4 - 0.0 - - - - - - -
22/12:00pm 19.5 SW 22 28 1018.3 - 0.0 - - - - - - -
22/11:30am 19.0 SW 19 24 1018.0 - 0.0 - - - - - - -
22/11:00am 19.2 SW 17 23 1017.9 - 0.0 - - - - - - -
22/10:30am 19.2 SW 17 21 1018.1 - 0.0 - - - - - - -
22/10:00am 19.1 SW 16 22 1018.1 - 0.0 - - - - - - -
22/09:30am 18.6 SW 17 23 1018.1 - 0.0 - - - - - - -
22/09:00am 18.7 SW 16 21 1017.9 - 0.0 Haze Mostly clear 6 - - - -
22/08:30am 18.5 SW 16 21 1017.5 - 0.0 - - - - - - -
22/08:00am 18.7 WSW 13 18 1017.2 - 0.0 - - - - - - -
22/07:30am 18.0 WSW 13 17 1016.8 - 0.0 - - - - - - -
22/07:00am 17.4 SW 14 18 1016.5 - 0.0 - - - - - - -
22/06:30am 18.2 SSW 13 16 1016.0 - 0.0 - - - - - - -
22/06:00am 17.9 NNW 6 7 1015.1 - 0.0 - - - - - - -
22/05:30am 17.9 NNW 7 8 1014.9 - 0.0 - - - - - - -
22/05:00am 17.7 NNW 5 6 1014.8 - 0.0 - - - - - - -
22/04:30am 18.1 WSW 6 7 1015.1 - 0.0 - - - - - - -
22/04:00am 17.9 WNW 6 7 1015.1 - 0.0 - - - - - - -
22/03:30am 17.7 WNW 5 6 1015.2 - 0.0 - - - - - - -
22/03:00am 18.3 SW 3 5 1015.8 - 0.0 - - - - - - -
22/02:30am 17.9 SSW 4 6 1016.3 - 0.0 - - - - - - -
22/02:00am 17.7 SW 13 16 1016.7 - 0.0 - - - - - - -
22/01:30am 18.3 SW 14 16 1017.1 - 0.0 - - - - - - -
22/01:00am 19.4 SW 20 26 1016.8 - 0.0 - - - - - - -
22/12:45am 21.7 WSW 16 26 1016.5 - 0.0 - - - - - - -
22/12:30am 26.8 NE 9 11 1015.9 - 0.0 - - - - - - -
22/12:00am 24.9 NE 9 11 1016.4 - 0.0 - - - - - - -
 
Date/Time
CDT
Temp

°C
Wind Pressure Rain
since 9am
mm
Weather Cloud Vis
km
Sea
Height
m
Swell
Dir
 
Speed
knots
Gust
knots
hPa Trend Height
m
Period
s
Dir
21/11:30pm 26.0 N 8 9 1016.6 - 0.0 - - - - - - -
21/11:00pm 26.8 N 9 11 1016.7 - 0.0 - - - - - - -
21/10:30pm 25.6 NNW 6 9 1016.8 - 0.0 - - - - - - -
21/10:00pm 24.6 NNW 7 9 1016.5 - 0.0 - - - - - - -
21/09:30pm 26.2 ENE 11 13 1016.4 - 0.0 - - - - - - -
21/09:00pm 26.4 ENE 11 13 1016.2 - 0.0 - - - - - - -
21/08:30pm 27.9 ENE 11 12 1016.4 - 0.0 - - - - - - -
21/08:00pm 28.1 ENE 11 13 1016.4 - 0.0 - - - - - - -
21/07:30pm 28.5 ENE 8 11 1016.3 - 0.0 - - - - - - -
21/07:00pm 29.8 ENE 8 11 1016.5 - 0.0 - - - - - - -
21/06:30pm 30.4 SE 3 6 1016.2 - 0.0 - - - - - - -
21/06:00pm 30.9 ESE 7 8 1016.2 - 0.0 - - - - - - -
21/05:30pm 32.6 ESE 6 8 1016.3 - 0.0 - - - - - - -
21/05:00pm 32.1 SSE 9 10 1016.2 - 0.0 - - - - - - -
21/04:30pm 31.4 SSE 7 8 1016.2 - 0.0 - - - - - - -
21/04:00pm 31.9 SSE 8 9 1016.3 - 0.0 - - - - - - -
21/03:30pm 34.1 S 9 13 1016.4 - 0.0 - - - - - - -
21/03:00pm 36.1 W 7 11 1016.7 - 0.0 - - - - - - -
21/02:30pm 36.3 WNW 11 14 1017.1 - 0.0 - - - - - - -
21/02:00pm 37.5 NE 9 13 1017.4 - 0.0 - - - - - - -
21/01:30pm 37.0 N 12 16 1017.8 - 0.0 - - - - - - -
21/01:00pm 36.7 NNE 13 17 1018.2 - 0.0 - - - - - - -
21/12:30pm 35.4 NNE 15 20 1018.7 - 0.0 - - - - - - -
21/12:00pm 33.7 NE 14 18 1019.3 - 0.0 - - - - - - -
21/11:30am 30.6 NE 15 19 1019.7 - 0.0 - - - - - - -
21/11:00am 28.3 NE 17 21 1020.0 - 0.0 - - - - - - -
21/10:30am 26.7 NNE 17 23 1020.3 - 0.0 - - - - - - -
21/10:00am 24.5 NNE 17 22 1020.5 - 0.0 - - - - - - -
21/09:30am 22.4 NE 17 22 1020.5 - 0.0 - - - - - - -
21/09:00am 20.0 NE 20 25 1020.8 - 0.0 Haze Partly cloudy 8 - - - -
21/08:30am 19.1 NE 17 23 1020.9 - 0.0 - - - - - - -
21/08:00am 17.2 NE 14 19 1020.8 - 0.0 - - - - - - -
21/07:30am 16.6 NNE 15 19 1020.6 - 0.0 - - - - - - -
21/07:00am 16.3 NNE 13 16 1020.6 - 0.0 - - - - - - -
21/06:30am 16.0 NNE 15 19 1020.4 - 0.0 - - - - - - -
21/06:00am 16.1 NE 15 18 1019.9 - 0.0 - - - - - - -
21/05:30am 16.5 NNE 13 17 1019.9 - 0.0 - - - - - - -
21/05:00am 15.8 NNE 13 16 1019.8 - 0.0 - - - - - - -
21/04:30am 16.5 NNE 14 18 1019.8 - 0.0 - - - - - - -
21/04:00am 16.7 NNE 14 19 1019.9 - 0.0 - - - - - - -
21/03:30am 15.4 NNE 12 15 1020.1 - 0.0 - - - - - - -
21/03:00am 15.6 NNE 12 13 1020.4 - 0.0 - - - - - - -
21/02:30am 14.4 N 11 13 1020.6 - 0.0 - - - - - - -
21/02:00am 13.6 N 9 10 1020.8 - 0.0 - - - - - - -
21/01:30am 13.9 N 8 10 1021.1 - 0.0 - - - - - - -
21/01:00am 12.3 NNE 6 8 1021.4 - 0.0 - - - - - - -
21/12:30am 12.6 E 6 6 1021.7 - 0.0 - - - - - - -
21/12:00am 13.9 NNW 2 4 1022.2 - 0.0 - - - - - - -
 
Date/Time
CDT
Temp

°C
Wind Pressure Rain
since 9am
mm
Weather Cloud Vis
km
Sea
Height
m
Swell
Dir
 
Speed
knots
Gust
knots
hPa Trend Height
m
Period
s
Dir
20/11:30pm 14.3 NW 5 6 1022.5 - 0.0 - - - - - - -
20/11:00pm 14.4 NW 6 7 1022.5 - 0.0 - - - - - - -
20/10:30pm 15.8 SSW 2 3 1022.6 - 0.0 - - - - - - -
20/10:00pm 16.1 SW 2 3 1022.9 - 0.0 - - - - - - -
20/09:30pm 16.1 SSW 4 5 1023.0 - 0.0 - - - - - - -
20/09:00pm 16.2 SW 4 5 1022.9 - 0.0 - - - - - - -
20/08:30pm 16.0 SSW 4 6 1022.6 - 0.0 - - - - - - -
20/08:00pm 16.3 SW 4 5 1022.4 - 0.0 - - - - - - -
20/07:30pm 16.7 SSW 5 6 1022.3 - 0.0 - - - - - - -
20/07:00pm 17.3 S 6 8 1022.0 - 0.0 - - - - - - -
20/06:30pm 17.8 SSE 8 10 1021.9 - 0.0 - - - - - - -
20/06:00pm 17.9 SE 11 13 1021.9 - 0.0 - - - - - - -
20/05:30pm 18.7 SE 14 16 1022.0 - 0.0 - - - - - - -
20/05:00pm 18.4 SSE 15 19 1022.2 - 0.0 - - - - - - -
20/04:30pm 17.9 SSE 17 21 1022.2 - 0.0 - - - - - - -
20/04:00pm 17.8 SSE 18 20 1022.3 - 0.0 - - - - - - -
20/03:30pm 19.2 SSE 17 19 1022.7 - 0.0 - - - - - - -
20/03:00pm 19.6 SSE 16 18 1023.0 - 0.0 - - - - - - -
20/02:30pm 20.9 SSE 13 17 1023.5 - 0.0 - - - - - - -
20/02:00pm 24.1 ENE 14 18 1023.9 - 0.0 - - - - - - -
20/01:30pm 23.0 ENE 15 20 1024.4 - 0.0 - - - - - - -
20/01:00pm 21.5 ENE 14 18 1024.7 - 0.0 - - - - - - -
20/12:30pm 20.9 ENE 15 20 1025.2 - 0.0 - - - - - - -
20/12:00pm 19.7 ENE 15 20 1025.6 - 0.0 - - - - - - -
20/11:30am 18.9 ENE 16 20 1025.9 - 0.0 - - - - - - -
20/11:00am 17.2 ENE 16 22 1026.4 - 0.0 - - - - - - -
20/10:30am 16.8 ENE 14 20 1026.8 - 0.0 - - - - - - -
20/10:00am 17.1 ENE 12 16 1026.9 - 0.0 - - - - - - -
20/09:30am 15.5 E 12 16 1027.1 - 0.0 - - - - - - -
20/09:00am 14.1 E 12 15 1027.3 - 0.0 Haze Partly cloudy 7 - - - -
20/08:30am 13.3 E 13 16 1027.5 - 0.0 - - - - - - -
20/08:00am 12.9 E 12 15 1027.3 - 0.0 - - - - - - -
20/07:30am 11.4 E 9 11 1026.9 - 0.0 - - - - - - -
20/07:00am 10.9 E 9 11 1026.7 - 0.0 - - - - - - -
20/06:30am 10.4 E 9 11 1026.4 - 0.0 - - - - - - -
20/06:00am 10.7 E 8 9 1026.2 - 0.0 - - - - - - -
20/05:30am 11.5 E 12 15 1026.0 - 0.0 - - - - - - -
20/05:00am 11.2 E 10 13 1025.9 - 0.0 - - - - - - -
20/04:30am 10.6 E 8 9 1025.7 - 0.0 - - - - - - -
20/04:00am 11.1 E 9 11 1025.4 - 0.0 - - - - - - -
20/03:30am 11.4 E 7 8 1025.6 - 0.0 - - - - - - -
20/03:00am 12.6 ESE 10 13 1025.6 - 0.0 - - - - - - -
20/02:30am 12.7 E 8 10 1025.6 - 0.0 - - - - - - -
20/02:00am 13.7 ESE 12 15 1025.7 - 0.0 - - - - - - -
20/01:30am 14.4 SE 15 18 1025.8 - 0.0 - - - - - - -
20/01:00am 14.6 SE 16 19 1025.7 - 0.0 - - - - - - -
20/12:30am 14.7 SE 14 18 1026.0 - 0.0 - - - - - - -
20/12:00am 14.8 SE 17 20 1025.8 - 0.0 - - - - - - -
 
Date/Time
CDT
Temp

°C
Wind Pressure Rain
since 9am
mm
Weather Cloud Vis
km
Sea
Height
m
Swell
Dir
 
Speed
knots
Gust
knots
hPa Trend Height
m
Period
s
Dir
19/11:30pm 14.9 SE 16 19 1025.9 - 0.0 - - - - - - -
19/11:00pm 15.1 SSE 18 20 1025.6 - 0.0 - - - - - - -
19/10:30pm 15.3 SSE 15 18 1025.6 - 0.0 - - - - - - -
19/10:00pm 15.1 SSE 15 18 1025.6 - 0.0 - - - - - - -
19/09:30pm 15.3 S 16 20 1025.4 - 0.0 - - - - - - -
19/09:00pm 15.3 S 15 19 1025.3 - 0.0 - - - - - - -
19/08:30pm 15.3 S 16 18 1025.1 - 0.0 - - - - - - -
19/08:00pm 15.4 S 16 18 1024.7 - 0.0 - - - - - - -
19/07:30pm 15.2 S 12 15 1024.5 - 0.0 - - - - - - -
19/07:00pm 15.6 S 13 16 1024.1 - 0.0 - - - - - - -
19/06:30pm 15.9 SSE 18 21 1023.8 - 0.0 - - - - - - -
19/06:00pm 15.9 S 19 23 1023.7 - 0.0 - - - - - - -
19/05:30pm 16.1 S 21 25 1023.4 - 0.0 - - - - - - -
19/05:00pm 16.5 S 19 24 1023.2 - 0.0 - - - - - - -
19/04:30pm 16.9 S 20 23 1023.0 - 0.0 - - - - - - -
19/04:00pm 17.2 S 19 22 1022.7 - 0.0 - - - - - - -

Other Formats:

Comma delimited format used in spreadsheet applications
http://www.bom.gov.au/fwo/IDS60701/IDS60701.94677.axf

JavaScript Object Notation format (JSON) in row-major order
http://www.bom.gov.au/fwo/IDS60701/IDS60701.94677.json